createdAt,value
2022-08-18T00:01:45.497Z,97354.91
2022-08-18T00:04:35.306Z,97358.88
2022-08-18T00:07:07.324Z,97358.86
2022-08-18T00:09:38.955Z,97358.45
2022-08-18T00:12:13.775Z,97362.18
2022-08-18T00:14:43.644Z,97366.29
2022-08-18T00:17:14.052Z,97371.63
2022-08-18T00:19:47.793Z,97371.17
2022-08-18T00:22:20.264Z,97376.08
2022-08-18T00:24:52.630Z,97379.65
2022-08-18T00:27:28.220Z,97382.09
2022-08-18T00:29:59.955Z,97385.73
2022-08-18T00:32:33.208Z,97391.88
2022-08-18T00:35:09.772Z,97396.91
2022-08-18T00:37:39.563Z,97394.45
2022-08-18T00:40:12.738Z,97390.68
2022-08-18T00:42:47.940Z,97379.38
2022-08-18T00:45:22.773Z,97379.73
2022-08-18T00:47:52.932Z,97379.96
2022-08-18T00:50:27.944Z,97381.95
2022-08-18T00:53:03.505Z,97380.88
2022-08-18T00:55:33.901Z,97381.20
2022-08-18T00:58:10.566Z,97383.09
2022-08-18T01:00:40.401Z,97388.41
2022-08-18T01:03:14.382Z,97389.36
2022-08-18T01:05:49.189Z,97391.20
2022-08-18T01:08:28.826Z,97390.59
2022-08-18T01:11:02.422Z,97387.08
2022-08-18T01:13:34.062Z,97379.20
2022-08-18T01:16:24.067Z,97375.61
2022-08-18T01:19:08.634Z,97372.08
2022-08-18T01:21:53.118Z,97370.75
2022-08-18T01:24:46.721Z,97368.51
2022-08-18T01:27:18.530Z,97373.20
2022-08-18T01:29:50.362Z,97370.25
2022-08-18T01:32:23.629Z,97365.52
2022-08-18T01:34:54.702Z,97356.29
2022-08-18T01:37:25.773Z,97357.44
2022-08-18T01:41:21.303Z,97360.30
2022-08-18T01:42:46.162Z,97353.90
2022-08-18T01:45:18.454Z,97346.83
2022-08-18T01:47:50.299Z,97348.58
2022-08-18T01:50:20.243Z,97350.81
2022-08-18T01:52:53.143Z,97356.41
2022-08-18T01:55:21.931Z,97350.40
2022-08-18T01:57:51.790Z,97345.95
2022-08-18T02:00:21.913Z,97343.25
2022-08-18T02:03:01.968Z,97340.02
2022-08-18T02:05:37.112Z,97336.18
2022-08-18T02:08:08.034Z,97342.88
2022-08-18T02:10:38.494Z,97349.48
2022-08-18T02:13:08.393Z,97352.69
2022-08-18T02:15:38.062Z,97348.77
2022-08-18T02:18:37.172Z,97350.08
2022-08-18T02:21:11.227Z,97357.15
2022-08-18T02:23:44.945Z,97358.30
2022-08-18T02:26:23.921Z,97357.81
2022-08-18T02:28:54.074Z,97356.89
2022-08-18T02:31:25.815Z,97358.66
2022-08-18T02:33:56.794Z,97358.38
2022-08-18T02:36:26.495Z,97362.02
2022-08-18T02:38:59.957Z,97364.10
2022-08-18T02:41:30.833Z,97363.11
2022-08-18T02:44:00.870Z,97359.33
2022-08-18T02:46:31.296Z,97359.38
2022-08-18T02:49:01.846Z,97352.45
2022-08-18T02:51:31.887Z,97347.27
2022-08-18T02:54:01.730Z,97343.29
2022-08-18T02:56:40.551Z,97341.30
2022-08-18T02:59:14.770Z,97335.13
2022-08-18T03:01:46.371Z,97336.60
2022-08-18T03:04:19.383Z,97335.23
2022-08-18T03:06:49.383Z,97342.27
2022-08-18T03:09:20.093Z,97344.27
2022-08-18T03:11:50.189Z,97342.41
2022-08-18T03:14:19.942Z,97335.02
2022-08-18T03:16:53.652Z,97336.69
2022-08-18T03:19:25.450Z,97342.52
2022-08-18T03:21:57.229Z,97344.08
2022-08-18T03:24:29.974Z,97346.75
2022-08-18T03:27:00.168Z,97347.17
2022-08-18T03:29:32.795Z,97349.58
2022-08-18T03:32:04.914Z,97353.91
2022-08-18T03:34:34.692Z,97356.27
2022-08-18T03:37:05.223Z,97359.58
2022-08-18T03:39:35.014Z,97363.94
2022-08-18T03:42:05.192Z,97371.02
2022-08-18T03:44:37.065Z,97363.91
2022-08-18T03:47:09.749Z,97360.98
2022-08-18T03:49:39.724Z,97360.58
2022-08-18T03:52:10.767Z,97360.40
2022-08-18T03:54:41.035Z,97368.38
2022-08-18T03:57:12.195Z,97367.27
2022-08-18T03:59:43.048Z,97374.08
2022-08-18T04:02:12.928Z,97377.37
2022-08-18T04:04:43.230Z,97379.84
2022-08-18T04:07:16.554Z,97384.20
2022-08-18T04:09:45.187Z,97384.60
2022-08-18T04:12:17.156Z,97387.37
2022-08-18T04:14:49.787Z,97392.09
2022-08-18T04:17:24.520Z,97403.11
2022-08-18T04:19:55.136Z,97406.45
2022-08-18T04:22:25.971Z,97403.02
2022-08-18T04:24:56.302Z,97403.58
2022-08-18T04:27:28.462Z,97409.94
2022-08-18T04:29:59.470Z,97413.39
2022-08-18T04:32:31.479Z,97406.83
2022-08-18T04:35:02.810Z,97413.84
2022-08-18T04:37:33.224Z,97412.94
2022-08-18T04:40:13.958Z,97412.35
2022-08-18T04:42:44.417Z,97408.73
2022-08-18T04:45:14.178Z,97406.11
2022-08-18T04:47:43.702Z,97412.80
2022-08-18T04:50:14.590Z,97416.36
2022-08-18T04:53:02.512Z,97417.30
2022-08-18T04:55:32.320Z,97413.36
2022-08-18T04:58:02.101Z,97416.91
2022-08-18T05:00:31.990Z,97419.98
2022-08-18T05:03:01.511Z,97425.33
2022-08-18T05:05:31.030Z,97429.11
2022-08-18T05:08:00.801Z,97426.69
2022-08-18T05:10:30.493Z,97424.94
2022-08-18T05:13:00.713Z,97423.73
2022-08-18T05:15:46.917Z,97423.02
2022-08-18T05:18:23.853Z,97424.68
2022-08-18T05:20:58.420Z,97418.61
2022-08-18T05:23:29.686Z,97416.02
2022-08-18T05:26:01.093Z,97412.89
2022-08-18T05:28:31.241Z,97411.80
2022-08-18T05:31:06.662Z,97414.20
2022-08-18T05:33:39.711Z,97420.95
2022-08-18T05:36:28.810Z,97419.18
2022-08-18T05:39:06.903Z,97421.48
2022-08-18T05:41:39.671Z,97424.55
2022-08-18T05:44:13.996Z,97423.71
2022-08-18T05:46:49.083Z,97419.75
2022-08-18T05:49:20.293Z,97420.75
2022-08-18T05:51:52.977Z,97418.95
2022-08-18T05:54:42.895Z,97422.17
2022-08-18T05:57:17.620Z,97423.91
2022-08-18T05:59:49.182Z,97424.83
2022-08-18T06:02:31.116Z,97423.23
2022-08-18T06:05:03.671Z,97426.35
2022-08-18T06:07:37.801Z,97430.95
2022-08-18T06:10:12.113Z,97433.92
2022-08-18T06:12:47.215Z,97434.93
2022-08-18T06:15:39.687Z,97432.84
2022-08-18T06:18:37.886Z,97436.18
2022-08-18T06:21:29.819Z,97438.83
2022-08-18T06:24:11.620Z,97442.39
2022-08-18T06:26:50.946Z,97442.63
2022-08-18T06:29:37.541Z,97451.77
2022-08-18T06:32:17.433Z,97452.30
2022-08-18T06:35:03.691Z,97449.79
2022-08-18T06:38:00.697Z,97448.73
2022-08-18T06:40:30.969Z,97448.61
2022-08-18T06:43:02.255Z,97446.19
2022-08-18T06:45:39.890Z,97450.38
2022-08-18T06:48:29.251Z,97445.66
2022-08-18T06:51:02.080Z,97450.57
2022-08-18T06:53:48.254Z,97446.89
2022-08-18T06:56:26.989Z,97450.08
2022-08-18T06:59:15.800Z,97451.35
2022-08-18T07:01:47.243Z,97456.17
2022-08-18T07:04:42.022Z,97458.27
2022-08-18T07:07:40.226Z,97467.35
2022-08-18T07:10:32.240Z,97469.38
2022-08-18T07:13:20.823Z,97471.05
2022-08-18T07:15:51.321Z,97472.56
2022-08-18T07:18:27.101Z,97467.91
2022-08-18T07:20:59.322Z,97469.85
2022-08-18T07:23:34.292Z,97468.51
2022-08-18T07:26:10.012Z,97463.40
2022-08-18T07:28:44.066Z,97468.48
2022-08-18T07:31:25.125Z,97466.33
2022-08-18T07:33:59.951Z,97467.39
2022-08-18T07:36:36.026Z,97466.94
2022-08-18T07:39:14.863Z,97460.51
2022-08-18T07:41:52.779Z,97465.21
2022-08-18T07:44:33.603Z,97465.02
2022-08-18T07:47:07.691Z,97466.34
2022-08-18T07:49:54.493Z,97467.47
2022-08-18T07:52:44.327Z,97470.30
2022-08-18T07:55:26.821Z,97470.94
2022-08-18T07:58:05.338Z,97471.37
2022-08-18T08:00:59.944Z,97473.70
2022-08-18T08:03:40.772Z,97473.81
2022-08-18T08:06:19.820Z,97472.36
2022-08-18T08:09:00.612Z,97475.98
2022-08-18T08:11:44.591Z,97475.59
2022-08-18T08:14:29.424Z,97474.20
2022-08-18T08:17:06.858Z,97474.96
2022-08-18T08:20:00.546Z,97479.32
2022-08-18T08:22:36.013Z,97473.80
2022-08-18T08:25:28.653Z,97469.41
2022-08-18T08:28:11.994Z,97470.09
2022-08-18T08:30:48.572Z,97466.77
2022-08-18T08:33:27.283Z,97465.71
2022-08-18T08:36:09.927Z,97469.64
2022-08-18T08:38:45.531Z,97470.50
2022-08-18T08:41:41.041Z,97468.46
2022-08-18T08:44:18.390Z,97461.10
2022-08-18T08:46:53.015Z,97459.76
2022-08-18T08:49:33.910Z,97460.88
2022-08-18T08:52:10.497Z,97452.96
2022-08-18T08:54:51.203Z,97453.38
2022-08-18T08:57:26.700Z,97451.73
2022-08-18T09:00:07.731Z,97453.69
2022-08-18T09:03:00.685Z,97457.17
2022-08-18T09:05:36.275Z,97458.61
2022-08-18T09:08:31.666Z,97464.16
2022-08-18T09:11:44.598Z,97460.72
2022-08-18T09:14:33.532Z,97460.69
2022-08-18T09:17:23.462Z,97465.44
2022-08-18T09:20:16.744Z,97465.59
2022-08-18T09:22:52.021Z,97474.33
2022-08-18T09:25:54.278Z,97479.59
2022-08-18T09:28:56.191Z,97480.46
2022-08-18T09:31:31.633Z,97475.66
2022-08-18T09:34:25.561Z,97475.67
2022-08-18T09:37:15.685Z,97480.23
2022-08-18T09:40:14.073Z,97482.55
2022-08-18T09:42:52.703Z,97485.81
2022-08-18T09:45:57.607Z,97487.94
2022-08-18T09:48:30.583Z,97491.70
2022-08-18T09:51:23.346Z,97493.93
2022-08-18T09:54:12.925Z,97487.20
2022-08-18T09:57:19.539Z,97484.73
2022-08-18T10:00:11.554Z,97490.29
2022-08-18T10:03:25.731Z,97489.02
2022-08-18T10:06:20.658Z,97481.36
2022-08-18T10:09:27.104Z,97481.60
2022-08-18T10:12:29.714Z,97479.60
2022-08-18T10:15:04.098Z,97480.80
2022-08-18T10:17:52.893Z,97490.60
2022-08-18T10:20:37.301Z,97491.64
2022-08-18T10:23:08.013Z,97489.69
2022-08-18T10:25:42.211Z,97491.19
2022-08-18T10:28:34.084Z,97486.06
2022-08-18T10:31:10.014Z,97487.80
2022-08-18T10:34:05.554Z,97488.46
2022-08-18T10:36:52.211Z,97484.23
2022-08-18T10:39:27.738Z,97490.89
2022-08-18T10:42:14.861Z,97485.89
2022-08-18T10:44:47.365Z,97482.38
2022-08-18T10:47:24.971Z,97482.61
2022-08-18T10:49:55.669Z,97482.99
2022-08-18T10:53:35.342Z,97475.98
2022-08-18T10:56:02.524Z,97470.53
2022-08-18T10:59:04.577Z,97474.52
2022-08-18T11:01:50.282Z,97472.61
2022-08-18T11:04:36.672Z,97459.54
2022-08-18T11:07:11.062Z,97453.34
2022-08-18T11:09:51.016Z,97449.77
2022-08-18T11:12:55.854Z,97444.64
2022-08-18T11:15:38.276Z,97446.23
2022-08-18T11:18:19.903Z,97439.96
2022-08-18T11:20:52.060Z,97443.90
2022-08-18T11:23:22.207Z,97439.84
2022-08-18T11:25:58.702Z,97439.39
2022-08-18T11:28:31.823Z,97441.36
2022-08-18T11:31:02.580Z,97440.65
2022-08-18T11:33:42.177Z,97438.86
2022-08-18T11:36:17.194Z,97440.71
2022-08-18T11:38:56.433Z,97441.11
2022-08-18T11:41:48.186Z,97444.24
2022-08-18T11:44:24.639Z,97449.59
2022-08-18T11:47:08.971Z,97444.47
2022-08-18T11:49:45.852Z,97445.77
2022-08-18T11:52:29.544Z,97442.92
2022-08-18T11:55:14.755Z,97439.45
2022-08-18T11:57:59.187Z,97428.03
2022-08-18T12:00:54.821Z,97418.83
2022-08-18T12:03:37.773Z,97408.85
2022-08-18T12:06:21.925Z,97407.58
2022-08-18T12:09:01.990Z,97402.80
2022-08-18T12:11:35.370Z,97399.28
2022-08-18T12:14:31.832Z,97398.83
2022-08-18T12:17:01.453Z,97390.04
2022-08-18T12:19:34.640Z,97395.30
2022-08-18T12:22:16.032Z,97393.69
2022-08-18T12:24:46.723Z,97397.40
2022-08-18T12:27:23.231Z,97393.95
2022-08-18T12:29:55.441Z,97390.00
2022-08-18T12:32:49.152Z,97383.59
2022-08-18T12:35:21.813Z,97380.84
2022-08-18T12:38:11.088Z,97380.20
2022-08-18T12:40:42.646Z,97369.95
2022-08-18T12:43:12.632Z,97359.41
2022-08-18T12:45:44.433Z,97355.69
2022-08-18T12:48:14.287Z,97358.31
2022-08-18T12:53:58.037Z,97345.88
2022-08-18T12:56:30.037Z,97343.52
2022-08-18T12:59:04.332Z,97342.91
2022-08-18T13:01:36.013Z,97341.18
2022-08-18T13:04:12.433Z,97344.94
2022-08-18T13:07:00.305Z,97342.98
2022-08-18T13:09:34.658Z,97348.59
2022-08-18T13:12:16.371Z,97350.99
2022-08-18T13:14:47.413Z,97350.69
2022-08-18T13:17:29.754Z,97345.66
2022-08-18T13:20:09.076Z,97339.45
2022-08-18T13:22:40.632Z,97345.60
2022-08-18T13:25:12.922Z,97348.90
2022-08-18T13:27:59.008Z,97347.95
2022-08-18T13:30:30.252Z,97352.23
2022-08-18T13:33:05.770Z,97354.98
2022-08-18T13:35:54.813Z,97352.46
2022-08-18T13:38:27.625Z,97361.81
2022-08-18T13:41:01.000Z,97364.66
2022-08-18T13:43:35.738Z,97364.77
2022-08-18T13:46:09.061Z,97360.36
2022-08-18T13:48:41.427Z,97355.55
2022-08-18T13:51:19.867Z,97358.40
2022-08-18T13:53:59.045Z,97361.10
2022-08-18T13:56:39.922Z,97369.35
2022-08-18T13:59:10.042Z,97371.34
2022-08-18T14:01:44.349Z,97370.67
2022-08-18T14:04:27.774Z,97368.54
2022-08-18T14:06:59.951Z,97374.17
2022-08-18T14:09:37.068Z,97373.24
2022-08-18T14:12:22.750Z,97376.95
2022-08-18T14:14:55.045Z,97377.94
2022-08-18T14:17:25.993Z,97381.96
2022-08-18T14:20:21.833Z,97381.20
2022-08-18T14:23:14.231Z,97380.30
2022-08-18T14:26:21.342Z,97381.15
2022-08-18T14:28:53.882Z,97379.52
2022-08-18T14:31:23.983Z,97381.23
2022-08-18T14:33:55.516Z,97378.80
2022-08-18T14:36:29.791Z,97388.28
2022-08-18T14:39:01.108Z,97390.70
2022-08-18T14:41:31.821Z,97390.15
2022-08-18T14:44:13.646Z,97389.98
2022-08-18T14:46:54.118Z,97393.69
2022-08-18T14:49:28.506Z,97390.39
2022-08-18T14:52:00.524Z,97393.71
2022-08-18T14:54:31.474Z,97391.58
2022-08-18T14:57:05.269Z,97386.81
2022-08-18T14:59:37.968Z,97384.63
2022-08-18T15:02:13.117Z,97376.52
2022-08-18T15:04:55.927Z,97372.90
2022-08-18T15:07:27.818Z,97364.77
2022-08-18T15:10:15.075Z,97359.05
2022-08-18T15:12:46.717Z,97361.45
2022-08-18T15:15:18.043Z,97355.65
2022-08-18T15:17:50.364Z,97358.89
2022-08-18T15:20:29.486Z,97353.61
2022-08-18T15:23:22.658Z,97352.80
2022-08-18T15:25:54.978Z,97351.46
2022-08-18T15:28:27.523Z,97349.65
2022-08-18T15:33:51.393Z,97359.66
2022-08-18T15:36:28.959Z,97358.33
2022-08-18T15:38:59.564Z,97354.23
2022-08-18T15:41:32.548Z,97357.82
2022-08-18T15:44:07.426Z,97364.51
2022-08-18T15:46:39.234Z,97355.26
2022-08-18T15:49:14.877Z,97357.57
2022-08-18T15:51:45.662Z,97355.75
2022-08-18T15:54:15.526Z,97357.08
2022-08-18T15:56:45.305Z,97351.39
2022-08-18T15:59:34.099Z,97351.98
2022-08-18T16:02:11.893Z,97358.45
2022-08-18T16:04:48.012Z,97356.98
2022-08-18T16:07:25.082Z,97353.19
2022-08-18T16:10:02.682Z,97351.45
2022-08-18T16:12:32.411Z,97350.50
2022-08-18T16:15:04.515Z,97349.98
2022-08-18T16:17:37.564Z,97349.30
2022-08-18T16:20:10.670Z,97348.31
2022-08-18T16:22:40.663Z,97347.88
2022-08-18T16:25:11.313Z,97347.61
2022-08-18T16:27:41.647Z,97345.65
2022-08-18T16:30:14.127Z,97337.82
2022-08-18T16:32:47.059Z,97339.14
2022-08-18T16:35:18.368Z,97346.10
2022-08-18T16:37:49.298Z,97338.59
2022-08-18T16:40:21.067Z,97332.95
2022-08-18T16:42:55.417Z,97333.06
2022-08-18T16:45:25.148Z,97335.59
2022-08-18T16:47:56.720Z,97336.07
2022-08-18T16:50:27.086Z,97326.31
2022-08-18T16:52:57.869Z,97328.55
2022-08-18T16:55:30.669Z,97330.02
2022-08-18T16:58:19.840Z,97335.02
2022-08-18T17:01:09.369Z,97333.86
2022-08-18T17:03:58.680Z,97332.67
2022-08-18T17:06:28.841Z,97335.70
2022-08-18T17:09:02.773Z,97337.65
2022-08-18T17:11:48.120Z,97336.27
2022-08-18T17:14:22.436Z,97339.13
2022-08-18T17:16:54.612Z,97340.91
2022-08-18T17:19:26.499Z,97339.83
2022-08-18T17:21:56.513Z,97341.58
2022-08-18T17:24:32.176Z,97345.34
2022-08-18T17:27:25.790Z,97343.40
2022-08-18T17:30:03.262Z,97339.14
2022-08-18T17:32:42.218Z,97327.98
2022-08-18T17:35:15.497Z,97326.25
2022-08-18T17:37:52.062Z,97322.18
2022-08-18T17:40:31.273Z,97320.84
2022-08-18T17:43:06.162Z,97322.60
2022-08-18T17:45:39.042Z,97318.65
2022-08-18T17:48:14.000Z,97324.25
2022-08-18T17:51:07.003Z,97324.75
2022-08-18T17:53:40.422Z,97334.38
2022-08-18T17:56:18.631Z,97334.86
2022-08-18T17:58:56.186Z,97339.33
2022-08-18T18:01:28.899Z,97335.86
2022-08-18T18:04:01.729Z,97336.35
2022-08-18T18:06:38.420Z,97337.10
2022-08-18T18:09:10.467Z,97335.54
2022-08-18T18:11:43.629Z,97337.37
2022-08-18T18:14:29.791Z,97344.58
2022-08-18T18:17:10.869Z,97344.69
2022-08-18T18:19:46.633Z,97349.88
2022-08-18T18:22:23.703Z,97349.42
2022-08-18T18:24:57.113Z,97349.61
2022-08-18T18:27:30.292Z,97354.72
2022-08-18T18:30:05.741Z,97352.34
2022-08-18T18:32:49.163Z,97351.43
2022-08-18T18:35:34.041Z,97354.23
2022-08-18T18:38:22.991Z,97359.73
2022-08-18T18:40:59.762Z,97357.95
2022-08-18T18:43:36.633Z,97362.88
2022-08-18T18:46:29.942Z,97359.39
2022-08-18T18:49:04.652Z,97366.26
2022-08-18T18:51:43.775Z,97364.64
2022-08-18T18:54:26.848Z,97364.35
2022-08-18T18:56:57.745Z,97364.91
2022-08-18T18:59:41.305Z,97361.56
2022-08-18T19:02:33.543Z,97359.83
2022-08-18T19:05:18.485Z,97362.71
2022-08-18T19:08:16.874Z,97360.59
2022-08-18T19:10:56.193Z,97355.19
2022-08-18T19:13:34.919Z,97360.61
2022-08-18T19:16:23.490Z,97363.34
2022-08-18T19:19:38.306Z,97366.90
2022-08-18T19:22:04.549Z,97365.83
2022-08-18T19:24:48.233Z,97366.09
2022-08-18T19:27:27.797Z,97368.25
2022-08-18T19:30:08.452Z,97362.63
2022-08-18T19:32:43.897Z,97357.52
2022-08-18T19:35:19.592Z,97356.38
2022-08-18T19:38:04.452Z,97354.02
2022-08-18T19:40:41.937Z,97344.30
2022-08-18T19:43:30.124Z,97343.83
2022-08-18T19:46:10.618Z,97340.55
2022-08-18T19:48:51.021Z,97335.23
2022-08-18T19:51:28.903Z,97333.11
2022-08-18T19:54:12.832Z,97331.55
2022-08-18T19:57:03.177Z,97324.70
2022-08-18T19:59:51.162Z,97321.52
2022-08-18T20:02:33.524Z,97313.03
2022-08-18T20:05:20.773Z,97306.00
2022-08-18T20:08:29.923Z,97297.61
2022-08-18T20:11:41.249Z,97296.48
2022-08-18T20:14:17.088Z,97296.45
2022-08-18T20:17:16.743Z,97298.48
2022-08-18T20:20:06.196Z,97297.52
2022-08-18T20:22:42.003Z,97300.79
2022-08-18T20:25:42.941Z,97296.70
2022-08-18T20:28:32.664Z,97285.57
2022-08-18T20:31:12.123Z,97280.42
2022-08-18T20:33:46.531Z,97276.64
2022-08-18T20:36:31.685Z,97276.26
2022-08-18T20:39:32.821Z,97271.75
2022-08-18T20:42:03.534Z,97263.30
2022-08-18T20:44:57.503Z,97269.73
2022-08-18T20:47:42.654Z,97281.39
2022-08-18T20:50:43.001Z,97282.79
2022-08-18T20:53:25.614Z,97284.13
2022-08-18T20:56:12.890Z,97274.04
2022-08-18T20:58:57.368Z,97276.46
2022-08-18T21:01:29.613Z,97279.81
2022-08-18T21:04:02.507Z,97281.11
2022-08-18T21:06:35.012Z,97281.95
2022-08-18T21:09:05.259Z,97285.91
2022-08-18T21:11:42.542Z,97282.63
2022-08-18T21:14:23.273Z,97275.27
2022-08-18T21:16:53.379Z,97275.93
2022-08-18T21:19:25.481Z,97270.95
2022-08-18T21:21:57.851Z,97275.51
2022-08-18T21:24:34.526Z,97283.98
2022-08-18T21:27:08.160Z,97274.52
2022-08-18T21:29:47.550Z,97273.65
2022-08-18T21:32:23.981Z,97281.17
2022-08-18T21:34:54.122Z,97282.59
2022-08-18T21:37:23.980Z,97283.55
2022-08-18T21:39:56.211Z,97288.66
2022-08-18T21:42:31.299Z,97297.36
2022-08-18T21:45:01.449Z,97299.38
2022-08-18T21:47:33.474Z,97293.91
2022-08-18T21:50:10.231Z,97292.92
2022-08-18T21:52:50.562Z,97286.84
2022-08-18T21:55:26.507Z,97279.67
2022-08-18T21:58:07.404Z,97276.80
2022-08-18T22:00:40.111Z,97273.09
2022-08-18T22:03:27.024Z,97271.64
2022-08-18T22:06:03.118Z,97266.61
2022-08-18T22:08:46.534Z,97260.94
2022-08-18T22:12:01.014Z,97266.17
2022-08-18T22:14:53.877Z,97272.33
2022-08-18T22:17:32.562Z,97276.00
2022-08-18T22:20:36.382Z,97274.98
2022-08-18T22:23:42.460Z,97276.16
2022-08-18T22:26:20.024Z,97280.73
2022-08-18T22:29:00.574Z,97283.16
2022-08-18T22:31:32.523Z,97279.39
2022-08-18T22:34:06.865Z,97278.82
2022-08-18T22:36:39.823Z,97282.45
2022-08-18T22:39:11.055Z,97280.23
2022-08-18T22:41:41.900Z,97279.91
2022-08-18T22:44:11.624Z,97278.49
2022-08-18T22:46:41.522Z,97277.39
2022-08-18T22:49:11.011Z,97275.73
2022-08-18T22:51:40.851Z,97274.60
2022-08-18T22:54:14.415Z,97276.60
2022-08-18T22:56:53.949Z,97281.33
2022-08-18T22:59:26.859Z,97277.74
2022-08-18T23:01:59.382Z,97279.95
2022-08-18T23:04:29.180Z,97279.77
2022-08-18T23:07:00.108Z,97282.86
2022-08-18T23:09:31.870Z,97283.22
2022-08-18T23:12:04.651Z,97280.81
2022-08-18T23:14:34.892Z,97272.20
2022-08-18T23:17:06.802Z,97270.95
2022-08-18T23:19:36.484Z,97270.29
2022-08-18T23:22:08.530Z,97272.64
2022-08-18T23:24:38.491Z,97270.09
2022-08-18T23:27:09.070Z,97267.25
2022-08-18T23:29:40.891Z,97263.52
2022-08-18T23:32:10.711Z,97260.23
2022-08-18T23:34:40.812Z,97258.31
2022-08-18T23:37:11.021Z,97255.27
2022-08-18T23:39:43.472Z,97254.04
2022-08-18T23:42:13.751Z,97253.27
2022-08-18T23:44:43.372Z,97257.82
2022-08-18T23:47:13.191Z,97260.88
2022-08-18T23:49:42.772Z,97259.73
2022-08-18T23:52:12.407Z,97259.42
2022-08-18T23:54:54.170Z,97254.89
2022-08-18T23:57:23.702Z,97256.28
2022-08-18T23:59:56.310Z,97246.00
